Brainard, New York
Current Conditions -  °F | °C
As of 3:54 AM on Saturday 20 Dec 2014 (Local Time) from KPSF Reporting Station
Clear Clear  
Wind Chill: 11°   Ceiling: Unl
Heat Index: 18°   Visibility: 10mi
Dew Point: 13°   Wind: 5mph
Humidity: 81%   Direction: 290°WNW
Pressure: 30.13"   Gusts: NA
Location:  42.5°N, 73.51°W
Report Text: KPSF 200854Z AUTO 29004KT 10SM CLR M08/M11 A3013 RMK AO2 SLP224 T10781106 50005
Loading
Personal Weather Stations






























Interactive Weather Map New forecast layout! Learn more

10-Day Weather Forecast

Advertisements
Track Severe Weather on mobile